Etusivu
METAR-TAF:

METAR-TAF

Lentoasemat :

Kenora, Ontario, Kanada

Leveyspiiri: 49-47N, Pituuspiiri: 094-22W, korkeus merenpinnasta: 407 m

Tämänhetkinen sää

Tämä raportti tehtiin 1 tunti ja 9 minuuttia sitten, kello 08.00 UTC
Tuuli 4 kn idästä/kaakosta
Lämpötila 6°C
Kosteus 61%
Ilmanpaine 1021 hPa
Näkyvyys: 32.2 km
Hajanaisia pilviä 11000 ft:n korkeudessa

METAR: CYQK 220800Z 11004KT 20SM SCT110 06/M01 A3014 RMK AC4 SLP217

Aika: 04:09 (09:09 UTC)

Sääennuste

Tämä raportti tehtiin 1 tunti ja 31 minuuttia sitten, kello 07.38 UTC
Ennuste voimassa 22. päivästä klo 08 UTC - 22. päivään klo 20 UTC
Tuuli 3 kn eri suunnista
Näkyvyys: 10 km
Hajanaisia pilviä 8000 ft:n korkeudessa

TAF: CYQK 220738Z 2208/2220 VRB03KT P6SM SCT080 RMK NXT FCST BY 221400Z

Säähavainnot ja -ennusteet yli 4000 lentoasemalta (METAR- ja TAF-raportit).

Käytössä olevat sääasemat on merkitty karttaan keltaisilla ja punaisilla pisteillä.

Aseta hiiri pisteen päälle nähdäksesi sääaseman nimen.

Klikkaa sitten nähdäksesi säähavainnot ja -ennusteet.

Kartan vaihtaminen: klikkaa mustalla rastilla varustettuja vihreitä pisteitä, niin voit zoomata sisään; viivalla varustettua vihreää pistettä, niin voit zoomata ulos tai vihreitä nuolia, niin pääset viereisille kartoille.


METAR-TAF: